sensor_id;sensor_type;location;lat;lon;timestamp;P1;durP1;ratioP1;P2;durP2;ratioP2
5135;SDS011;2586;48.710;9.202;2022-11-18T00:01:30;1.00;;;0.70;;
5135;SDS011;2586;48.710;9.202;2022-11-18T00:03:56;0.50;;;0.43;;
5135;SDS011;2586;48.710;9.202;2022-11-18T00:06:23;2.80;;;0.50;;
5135;SDS011;2586;48.710;9.202;2022-11-18T00:08:51;0.97;;;0.70;;
5135;SDS011;2586;48.710;9.202;2022-11-18T00:11:18;0.87;;;0.60;;
5135;SDS011;2586;48.710;9.202;2022-11-18T00:14:04;0.97;;;0.60;;
5135;SDS011;2586;48.710;9.202;2022-11-18T00:16:44;0.77;;;0.50;;
5135;SDS011;2586;48.710;9.202;2022-11-18T00:19:18;1.63;;;0.47;;
5135;SDS011;2586;48.710;9.202;2022-11-18T00:21:45;4.30;;;0.73;;
5135;SDS011;2586;48.710;9.202;2022-11-18T00:24:11;3.63;;;0.90;;
5135;SDS011;2586;48.710;9.202;2022-11-18T00:26:37;4.00;;;0.70;;
5135;SDS011;2586;48.710;9.202;2022-11-18T00:29:02;0.73;;;0.70;;
5135;SDS011;2586;48.710;9.202;2022-11-18T00:31:29;1.93;;;0.73;;
5135;SDS011;2586;48.710;9.202;2022-11-18T00:33:54;0.60;;;0.60;;
5135;SDS011;2586;48.710;9.202;2022-11-18T00:36:20;4.30;;;0.70;;
5135;SDS011;2586;48.710;9.202;2022-11-18T00:38:46;1.80;;;0.80;;
5135;SDS011;2586;48.710;9.202;2022-11-18T00:41:12;1.70;;;0.70;;
5135;SDS011;2586;48.710;9.202;2022-11-18T00:43:39;0.60;;;0.60;;
5135;SDS011;2586;48.710;9.202;2022-11-18T00:46:06;1.00;;;0.60;;
5135;SDS011;2586;48.710;9.202;2022-11-18T00:48:33;3.23;;;0.87;;
5135;SDS011;2586;48.710;9.202;2022-11-18T00:51:06;1.13;;;0.50;;
5135;SDS011;2586;48.710;9.202;2022-11-18T00:53:38;0.90;;;0.57;;
5135;SDS011;2586;48.710;9.202;2022-11-18T00:56:04;1.53;;;0.50;;
5135;SDS011;2586;48.710;9.202;2022-11-18T00:58:30;0.40;;;0.40;;
5135;SDS011;2586;48.710;9.202;2022-11-18T01:00:55;0.80;;;0.50;;
5135;SDS011;2586;48.710;9.202;2022-11-18T01:03:21;0.60;;;0.60;;
5135;SDS011;2586;48.710;9.202;2022-11-18T01:05:47;0.67;;;0.40;;
5135;SDS011;2586;48.710;9.202;2022-11-18T01:08:13;0.50;;;0.40;;
5135;SDS011;2586;48.710;9.202;2022-11-18T01:10:39;0.40;;;0.40;;
5135;SDS011;2586;48.710;9.202;2022-11-18T01:13:06;1.00;;;0.40;;
5135;SDS011;2586;48.710;9.202;2022-11-18T01:15:46;1.33;;;0.50;;
5135;SDS011;2586;48.710;9.202;2022-11-18T01:18:26;2.60;;;0.40;;
5135;SDS011;2586;48.710;9.202;2022-11-18T01:20:56;0.77;;;0.43;;
5135;SDS011;2586;48.710;9.202;2022-11-18T01:23:25;0.40;;;0.33;;
5135;SDS011;2586;48.710;9.202;2022-11-18T01:25:51;0.90;;;0.30;;
5135;SDS011;2586;48.710;9.202;2022-11-18T01:28:17;0.83;;;0.40;;
5135;SDS011;2586;48.710;9.202;2022-11-18T01:30:43;0.60;;;0.40;;
5135;SDS011;2586;48.710;9.202;2022-11-18T01:33:09;1.53;;;0.40;;
5135;SDS011;2586;48.710;9.202;2022-11-18T01:35:39;3.80;;;0.30;;
5135;SDS011;2586;48.710;9.202;2022-11-18T01:38:07;5.00;;;0.53;;
5135;SDS011;2586;48.710;9.202;2022-11-18T01:40:35;0.70;;;0.40;;
5135;SDS011;2586;48.710;9.202;2022-11-18T01:43:02;0.60;;;0.30;;
5135;SDS011;2586;48.710;9.202;2022-11-18T01:50:30;0.50;;;0.40;;
5135;SDS011;2586;48.710;9.202;2022-11-18T01:53:00;2.57;;;0.60;;
5135;SDS011;2586;48.710;9.202;2022-11-18T01:55:32;0.70;;;0.30;;
5135;SDS011;2586;48.710;9.202;2022-11-18T01:58:14;0.80;;;0.30;;
5135;SDS011;2586;48.710;9.202;2022-11-18T02:00:47;1.43;;;0.40;;
5135;SDS011;2586;48.710;9.202;2022-11-18T02:03:13;1.00;;;0.33;;
5135;SDS011;2586;48.710;9.202;2022-11-18T02:05:40;1.03;;;0.30;;
5135;SDS011;2586;48.710;9.202;2022-11-18T02:08:08;0.90;;;0.60;;
5135;SDS011;2586;48.710;9.202;2022-11-18T02:10:34;1.73;;;0.30;;
5135;SDS011;2586;48.710;9.202;2022-11-18T02:12:59;0.67;;;0.67;;
5135;SDS011;2586;48.710;9.202;2022-11-18T02:20:41;12.80;;;0.73;;
5135;SDS011;2586;48.710;9.202;2022-11-18T02:26:27;1.23;;;0.40;;
5135;SDS011;2586;48.710;9.202;2022-11-18T02:31:38;0.40;;;0.30;;
5135;SDS011;2586;48.710;9.202;2022-11-18T02:36:52;2.50;;;0.30;;
5135;SDS011;2586;48.710;9.202;2022-11-18T02:39:26;0.60;;;0.40;;
5135;SDS011;2586;48.710;9.202;2022-11-18T02:41:57;1.83;;;0.30;;
5135;SDS011;2586;48.710;9.202;2022-11-18T02:44:26;7.70;;;0.60;;
5135;SDS011;2586;48.710;9.202;2022-11-18T02:46:54;1.60;;;0.77;;
5135;SDS011;2586;48.710;9.202;2022-11-18T02:49:57;1.43;;;0.40;;
5135;SDS011;2586;48.710;9.202;2022-11-18T02:52:17;2.40;;;0.40;;
5135;SDS011;2586;48.710;9.202;2022-11-18T02:54:45;3.03;;;0.40;;
5135;SDS011;2586;48.710;9.202;2022-11-18T02:57:13;0.40;;;0.30;;
5135;SDS011;2586;48.710;9.202;2022-11-18T02:59:40;0.50;;;0.40;;
5135;SDS011;2586;48.710;9.202;2022-11-18T03:02:05;6.93;;;0.40;;
5135;SDS011;2586;48.710;9.202;2022-11-18T03:04:31;0.90;;;0.30;;
5135;SDS011;2586;48.710;9.202;2022-11-18T03:07:01;0.40;;;0.30;;
5135;SDS011;2586;48.710;9.202;2022-11-18T03:09:31;0.40;;;0.30;;
5135;SDS011;2586;48.710;9.202;2022-11-18T03:17:25;0.87;;;0.40;;
5135;SDS011;2586;48.710;9.202;2022-11-18T03:20:07;0.40;;;0.30;;
5135;SDS011;2586;48.710;9.202;2022-11-18T03:22:40;1.80;;;0.30;;
5135;SDS011;2586;48.710;9.202;2022-11-18T03:25:22;2.30;;;0.57;;
5135;SDS011;2586;48.710;9.202;2022-11-18T03:28:16;0.70;;;0.30;;
5135;SDS011;2586;48.710;9.202;2022-11-18T03:30:49;1.10;;;0.40;;
5135;SDS011;2586;48.710;9.202;2022-11-18T03:33:33;0.40;;;0.30;;
5135;SDS011;2586;48.710;9.202;2022-11-18T03:36:03;1.17;;;0.37;;
5135;SDS011;2586;48.710;9.202;2022-11-18T03:38:33;1.00;;;0.40;;
5135;SDS011;2586;48.710;9.202;2022-11-18T03:41:03;1.23;;;0.30;;
5135;SDS011;2586;48.710;9.202;2022-11-18T03:43:35;0.97;;;0.50;;
5135;SDS011;2586;48.710;9.202;2022-11-18T03:46:07;2.80;;;0.33;;
5135;SDS011;2586;48.710;9.202;2022-11-18T03:48:40;0.83;;;0.40;;
5135;SDS011;2586;48.710;9.202;2022-11-18T03:51:14;4.43;;;0.63;;
5135;SDS011;2586;48.710;9.202;2022-11-18T03:53:45;0.40;;;0.30;;
5135;SDS011;2586;48.710;9.202;2022-11-18T03:56:17;2.43;;;0.30;;
5135;SDS011;2586;48.710;9.202;2022-11-18T03:58:48;0.70;;;0.40;;
5135;SDS011;2586;48.710;9.202;2022-11-18T04:01:17;0.40;;;0.30;;
5135;SDS011;2586;48.710;9.202;2022-11-18T04:03:48;0.40;;;0.33;;
5135;SDS011;2586;48.710;9.202;2022-11-18T04:06:23;2.53;;;0.40;;
5135;SDS011;2586;48.710;9.202;2022-11-18T04:08:52;0.40;;;0.30;;
5135;SDS011;2586;48.710;9.202;2022-11-18T04:11:23;1.23;;;0.37;;
5135;SDS011;2586;48.710;9.202;2022-11-18T04:14:12;0.40;;;0.40;;
5135;SDS011;2586;48.710;9.202;2022-11-18T04:16:40;0.40;;;0.30;;
5135;SDS011;2586;48.710;9.202;2022-11-18T04:19:09;1.10;;;0.37;;
5135;SDS011;2586;48.710;9.202;2022-11-18T04:21:35;0.70;;;0.40;;
5135;SDS011;2586;48.710;9.202;2022-11-18T04:24:01;1.90;;;0.40;;
5135;SDS011;2586;48.710;9.202;2022-11-18T04:26:26;2.30;;;0.40;;
5135;SDS011;2586;48.710;9.202;2022-11-18T04:28:52;3.23;;;0.57;;
5135;SDS011;2586;48.710;9.202;2022-11-18T04:31:17;20.10;;;1.17;;
5135;SDS011;2586;48.710;9.202;2022-11-18T04:33:43;1.13;;;0.40;;
5135;SDS011;2586;48.710;9.202;2022-11-18T04:36:09;0.40;;;0.30;;
5135;SDS011;2586;48.710;9.202;2022-11-18T04:38:34;1.17;;;0.37;;
5135;SDS011;2586;48.710;9.202;2022-11-18T04:41:00;2.30;;;0.50;;
5135;SDS011;2586;48.710;9.202;2022-11-18T04:43:25;1.70;;;0.50;;
5135;SDS011;2586;48.710;9.202;2022-11-18T04:45:51;6.63;;;0.33;;
5135;SDS011;2586;48.710;9.202;2022-11-18T04:48:17;0.77;;;0.40;;
5135;SDS011;2586;48.710;9.202;2022-11-18T04:50:43;0.80;;;0.40;;
5135;SDS011;2586;48.710;9.202;2022-11-18T04:53:08;0.40;;;0.30;;
5135;SDS011;2586;48.710;9.202;2022-11-18T04:55:34;1.60;;;0.43;;
5135;SDS011;2586;48.710;9.202;2022-11-18T04:58:01;1.10;;;0.50;;
5135;SDS011;2586;48.710;9.202;2022-11-18T05:00:26;0.43;;;0.40;;
5135;SDS011;2586;48.710;9.202;2022-11-18T05:02:52;0.80;;;0.30;;
5135;SDS011;2586;48.710;9.202;2022-11-18T05:05:17;0.50;;;0.30;;
5135;SDS011;2586;48.710;9.202;2022-11-18T05:07:43;0.43;;;0.40;;
5135;SDS011;2586;48.710;9.202;2022-11-18T05:10:09;0.60;;;0.40;;
5135;SDS011;2586;48.710;9.202;2022-11-18T05:12:34;0.73;;;0.40;;
5135;SDS011;2586;48.710;9.202;2022-11-18T05:15:16;0.40;;;0.40;;
5135;SDS011;2586;48.710;9.202;2022-11-18T05:17:43;1.90;;;0.40;;
5135;SDS011;2586;48.710;9.202;2022-11-18T05:20:10;0.40;;;0.30;;
5135;SDS011;2586;48.710;9.202;2022-11-18T05:22:36;0.40;;;0.30;;
5135;SDS011;2586;48.710;9.202;2022-11-18T05:25:02;0.40;;;0.30;;
5135;SDS011;2586;48.710;9.202;2022-11-18T05:27:28;0.50;;;0.40;;
5135;SDS011;2586;48.710;9.202;2022-11-18T05:29:54;6.80;;;0.70;;
5135;SDS011;2586;48.710;9.202;2022-11-18T05:32:20;0.40;;;0.40;;
5135;SDS011;2586;48.710;9.202;2022-11-18T05:34:45;18.13;;;0.50;;
5135;SDS011;2586;48.710;9.202;2022-11-18T05:37:11;2.97;;;0.40;;
5135;SDS011;2586;48.710;9.202;2022-11-18T05:39:37;1.80;;;0.30;;
5135;SDS011;2586;48.710;9.202;2022-11-18T05:42:02;0.60;;;0.40;;
5135;SDS011;2586;48.710;9.202;2022-11-18T05:44:47;0.40;;;0.30;;
5135;SDS011;2586;48.710;9.202;2022-11-18T05:47:12;0.70;;;0.30;;
5135;SDS011;2586;48.710;9.202;2022-11-18T05:49:38;1.70;;;0.40;;
5135;SDS011;2586;48.710;9.202;2022-11-18T05:52:04;7.40;;;0.60;;
5135;SDS011;2586;48.710;9.202;2022-11-18T05:54:29;0.43;;;0.30;;
5135;SDS011;2586;48.710;9.202;2022-11-18T05:56:56;2.63;;;0.57;;
5135;SDS011;2586;48.710;9.202;2022-11-18T05:59:21;3.83;;;0.50;;
5135;SDS011;2586;48.710;9.202;2022-11-18T06:07:33;2.10;;;0.50;;
5135;SDS011;2586;48.710;9.202;2022-11-18T06:09:54;1.37;;;0.40;;
5135;SDS011;2586;48.710;9.202;2022-11-18T06:12:27;2.40;;;0.30;;
5135;SDS011;2586;48.710;9.202;2022-11-18T06:17:30;3.67;;;0.50;;
5135;SDS011;2586;48.710;9.202;2022-11-18T06:20:00;8.37;;;2.80;;
5135;SDS011;2586;48.710;9.202;2022-11-18T06:22:28;0.93;;;0.60;;
5135;SDS011;2586;48.710;9.202;2022-11-18T06:24:54;0.60;;;0.40;;
5135;SDS011;2586;48.710;9.202;2022-11-18T06:27:19;0.50;;;0.37;;
5135;SDS011;2586;48.710;9.202;2022-11-18T06:29:45;4.57;;;0.40;;
5135;SDS011;2586;48.710;9.202;2022-11-18T06:32:11;1.00;;;0.37;;
5135;SDS011;2586;48.710;9.202;2022-11-18T06:34:36;0.90;;;0.43;;
5135;SDS011;2586;48.710;9.202;2022-11-18T06:37:15;0.60;;;0.40;;
5135;SDS011;2586;48.710;9.202;2022-11-18T06:39:42;5.27;;;0.50;;
5135;SDS011;2586;48.710;9.202;2022-11-18T06:42:08;0.50;;;0.40;;
5135;SDS011;2586;48.710;9.202;2022-11-18T06:44:33;0.73;;;0.60;;
5135;SDS011;2586;48.710;9.202;2022-11-18T06:46:59;3.23;;;0.50;;
5135;SDS011;2586;48.710;9.202;2022-11-18T06:49:26;0.50;;;0.40;;
5135;SDS011;2586;48.710;9.202;2022-11-18T06:51:52;0.57;;;0.40;;
5135;SDS011;2586;48.710;9.202;2022-11-18T06:54:18;4.77;;;0.60;;
5135;SDS011;2586;48.710;9.202;2022-11-18T06:56:45;0.70;;;0.70;;
5135;SDS011;2586;48.710;9.202;2022-11-18T06:59:11;0.80;;;0.50;;
5135;SDS011;2586;48.710;9.202;2022-11-18T07:01:37;0.40;;;0.40;;
5135;SDS011;2586;48.710;9.202;2022-11-18T07:04:04;1.83;;;0.37;;
5135;SDS011;2586;48.710;9.202;2022-11-18T07:06:31;0.80;;;0.30;;
5135;SDS011;2586;48.710;9.202;2022-11-18T07:09:01;0.57;;;0.50;;
5135;SDS011;2586;48.710;9.202;2022-11-18T07:11:29;1.33;;;0.50;;
5135;SDS011;2586;48.710;9.202;2022-11-18T07:13:55;0.50;;;0.40;;
5135;SDS011;2586;48.710;9.202;2022-11-18T07:16:21;0.50;;;0.40;;
5135;SDS011;2586;48.710;9.202;2022-11-18T07:18:49;1.17;;;0.50;;
5135;SDS011;2586;48.710;9.202;2022-11-18T07:21:16;1.00;;;0.50;;
5135;SDS011;2586;48.710;9.202;2022-11-18T07:23:44;0.50;;;0.50;;
5135;SDS011;2586;48.710;9.202;2022-11-18T07:26:10;1.57;;;0.40;;
5135;SDS011;2586;48.710;9.202;2022-11-18T07:28:36;0.67;;;0.50;;
5135;SDS011;2586;48.710;9.202;2022-11-18T07:31:02;2.10;;;0.50;;
5135;SDS011;2586;48.710;9.202;2022-11-18T07:33:33;0.67;;;0.47;;
5135;SDS011;2586;48.710;9.202;2022-11-18T07:36:00;0.57;;;0.40;;
5135;SDS011;2586;48.710;9.202;2022-11-18T07:38:35;2.50;;;0.40;;
5135;SDS011;2586;48.710;9.202;2022-11-18T07:41:11;2.13;;;0.50;;
5135;SDS011;2586;48.710;9.202;2022-11-18T07:43:42;2.10;;;0.40;;
5135;SDS011;2586;48.710;9.202;2022-11-18T07:46:15;1.37;;;0.40;;
5135;SDS011;2586;48.710;9.202;2022-11-18T07:48:46;0.73;;;0.50;;
5135;SDS011;2586;48.710;9.202;2022-11-18T07:51:13;1.83;;;0.80;;
5135;SDS011;2586;48.710;9.202;2022-11-18T07:53:41;1.83;;;0.57;;
5135;SDS011;2586;48.710;9.202;2022-11-18T07:56:07;1.67;;;0.50;;
5135;SDS011;2586;48.710;9.202;2022-11-18T07:58:34;0.50;;;0.40;;
5135;SDS011;2586;48.710;9.202;2022-11-18T08:01:19;0.50;;;0.37;;
5135;SDS011;2586;48.710;9.202;2022-11-18T08:03:47;3.50;;;0.57;;
5135;SDS011;2586;48.710;9.202;2022-11-18T08:06:13;2.00;;;0.30;;
5135;SDS011;2586;48.710;9.202;2022-11-18T08:08:41;3.70;;;0.40;;
5135;SDS011;2586;48.710;9.202;2022-11-18T08:11:08;0.87;;;0.40;;
5135;SDS011;2586;48.710;9.202;2022-11-18T08:13:36;3.50;;;0.50;;
5135;SDS011;2586;48.710;9.202;2022-11-18T08:16:02;0.50;;;0.40;;
5135;SDS011;2586;48.710;9.202;2022-11-18T08:18:29;1.27;;;0.40;;
5135;SDS011;2586;48.710;9.202;2022-11-18T08:20:59;2.83;;;0.50;;
5135;SDS011;2586;48.710;9.202;2022-11-18T08:23:28;0.90;;;0.77;;
5135;SDS011;2586;48.710;9.202;2022-11-18T08:25:59;0.40;;;0.30;;
5135;SDS011;2586;48.710;9.202;2022-11-18T08:28:27;1.07;;;0.50;;
5135;SDS011;2586;48.710;9.202;2022-11-18T08:30:53;2.20;;;0.93;;
5135;SDS011;2586;48.710;9.202;2022-11-18T08:33:18;0.70;;;0.50;;
5135;SDS011;2586;48.710;9.202;2022-11-18T08:35:44;0.40;;;0.40;;
5135;SDS011;2586;48.710;9.202;2022-11-18T08:38:09;0.50;;;0.40;;
5135;SDS011;2586;48.710;9.202;2022-11-18T08:40:35;0.40;;;0.40;;
5135;SDS011;2586;48.710;9.202;2022-11-18T08:43:01;4.53;;;0.50;;
5135;SDS011;2586;48.710;9.202;2022-11-18T08:45:26;1.70;;;0.57;;
5135;SDS011;2586;48.710;9.202;2022-11-18T08:47:52;2.80;;;0.47;;
5135;SDS011;2586;48.710;9.202;2022-11-18T08:50:17;1.90;;;0.60;;
5135;SDS011;2586;48.710;9.202;2022-11-18T08:52:43;0.43;;;0.40;;
5135;SDS011;2586;48.710;9.202;2022-11-18T08:55:08;4.40;;;0.83;;
5135;SDS011;2586;48.710;9.202;2022-11-18T08:57:34;4.33;;;0.70;;
5135;SDS011;2586;48.710;9.202;2022-11-18T08:59:59;0.70;;;0.50;;
5135;SDS011;2586;48.710;9.202;2022-11-18T09:02:25;1.37;;;0.50;;
5135;SDS011;2586;48.710;9.202;2022-11-18T09:04:51;0.77;;;0.77;;
5135;SDS011;2586;48.710;9.202;2022-11-18T09:07:17;5.57;;;0.60;;
5135;SDS011;2586;48.710;9.202;2022-11-18T09:09:44;3.80;;;0.60;;
5135;SDS011;2586;48.710;9.202;2022-11-18T09:12:09;1.47;;;0.50;;
5135;SDS011;2586;48.710;9.202;2022-11-18T09:14:40;0.40;;;0.33;;
5135;SDS011;2586;48.710;9.202;2022-11-18T09:17:06;2.50;;;0.50;;
5135;SDS011;2586;48.710;9.202;2022-11-18T09:19:32;1.23;;;0.50;;
5135;SDS011;2586;48.710;9.202;2022-11-18T09:21:58;1.50;;;0.70;;
5135;SDS011;2586;48.710;9.202;2022-11-18T09:24:23;1.07;;;0.40;;
5135;SDS011;2586;48.710;9.202;2022-11-18T09:26:49;3.90;;;1.20;;
5135;SDS011;2586;48.710;9.202;2022-11-18T09:29:15;1.03;;;0.60;;
5135;SDS011;2586;48.710;9.202;2022-11-18T09:31:40;0.80;;;0.53;;
5135;SDS011;2586;48.710;9.202;2022-11-18T09:34:06;5.43;;;0.50;;
5135;SDS011;2586;48.710;9.202;2022-11-18T09:36:34;1.37;;;0.80;;
5135;SDS011;2586;48.710;9.202;2022-11-18T09:38:59;0.50;;;0.40;;
5135;SDS011;2586;48.710;9.202;2022-11-18T09:47:46;3.00;;;0.50;;
5135;SDS011;2586;48.710;9.202;2022-11-18T09:49:47;1.70;;;0.70;;
5135;SDS011;2586;48.710;9.202;2022-11-18T09:55:11;0.90;;;0.50;;
5135;SDS011;2586;48.710;9.202;2022-11-18T09:57:39;1.80;;;0.60;;
5135;SDS011;2586;48.710;9.202;2022-11-18T10:00:14;1.23;;;0.47;;
5135;SDS011;2586;48.710;9.202;2022-11-18T10:08:17;0.40;;;0.40;;
5135;SDS011;2586;48.710;9.202;2022-11-18T10:11:22;0.67;;;0.40;;
5135;SDS011;2586;48.710;9.202;2022-11-18T10:21:56;0.40;;;0.30;;
5135;SDS011;2586;48.710;9.202;2022-11-18T10:24:50;0.40;;;0.40;;
5135;SDS011;2586;48.710;9.202;2022-11-18T10:27:20;1.27;;;0.60;;
5135;SDS011;2586;48.710;9.202;2022-11-18T10:29:51;5.83;;;0.50;;
5135;SDS011;2586;48.710;9.202;2022-11-18T10:32:23;1.53;;;0.57;;
5135;SDS011;2586;48.710;9.202;2022-11-18T10:34:49;5.60;;;0.70;;
5135;SDS011;2586;48.710;9.202;2022-11-18T10:37:30;3.00;;;0.60;;
5135;SDS011;2586;48.710;9.202;2022-11-18T10:40:02;1.67;;;1.00;;
5135;SDS011;2586;48.710;9.202;2022-11-18T10:42:45;3.80;;;0.80;;
5135;SDS011;2586;48.710;9.202;2022-11-18T10:45:15;2.13;;;1.73;;
5135;SDS011;2586;48.710;9.202;2022-11-18T10:48:08;0.80;;;0.80;;
5135;SDS011;2586;48.710;9.202;2022-11-18T10:50:42;1.00;;;1.00;;
5135;SDS011;2586;48.710;9.202;2022-11-18T10:56:10;1.00;;;1.00;;
5135;SDS011;2586;48.710;9.202;2022-11-18T10:58:40;3.53;;;0.80;;
5135;SDS011;2586;48.710;9.202;2022-11-18T11:03:43;0.70;;;0.60;;
5135;SDS011;2586;48.710;9.202;2022-11-18T11:09:01;2.30;;;0.80;;
5135;SDS011;2586;48.710;9.202;2022-11-18T11:11:34;5.03;;;1.20;;
5135;SDS011;2586;48.710;9.202;2022-11-18T11:14:05;1.00;;;1.00;;
5135;SDS011;2586;48.710;9.202;2022-11-18T11:17:04;1.10;;;0.60;;
5135;SDS011;2586;48.710;9.202;2022-11-18T11:19:30;1.80;;;1.07;;
5135;SDS011;2586;48.710;9.202;2022-11-18T11:22:23;3.17;;;1.53;;
5135;SDS011;2586;48.710;9.202;2022-11-18T11:24:48;0.80;;;0.70;;
5135;SDS011;2586;48.710;9.202;2022-11-18T11:36:28;2.70;;;1.23;;
5135;SDS011;2586;48.710;9.202;2022-11-18T11:41:46;1.03;;;0.60;;
5135;SDS011;2586;48.710;9.202;2022-11-18T11:47:21;1.53;;;0.73;;
5135;SDS011;2586;48.710;9.202;2022-11-18T11:55:50;0.60;;;0.60;;
5135;SDS011;2586;48.710;9.202;2022-11-18T12:01:04;1.67;;;0.70;;
5135;SDS011;2586;48.710;9.202;2022-11-18T12:03:52;0.90;;;0.50;;
5135;SDS011;2586;48.710;9.202;2022-11-18T12:06:46;1.00;;;0.60;;
5135;SDS011;2586;48.710;9.202;2022-11-18T12:11:59;1.90;;;0.97;;
5135;SDS011;2586;48.710;9.202;2022-11-18T12:14:29;4.93;;;0.93;;
5135;SDS011;2586;48.710;9.202;2022-11-18T12:17:10;1.30;;;0.93;;
5135;SDS011;2586;48.710;9.202;2022-11-18T12:19:43;2.93;;;0.60;;
5135;SDS011;2586;48.710;9.202;2022-11-18T12:22:08;0.90;;;0.50;;
5135;SDS011;2586;48.710;9.202;2022-11-18T12:24:35;1.40;;;0.63;;
5135;SDS011;2586;48.710;9.202;2022-11-18T12:29:55;1.30;;;0.60;;
5135;SDS011;2586;48.710;9.202;2022-11-18T12:40:48;1.83;;;0.70;;
5135;SDS011;2586;48.710;9.202;2022-11-18T12:46:09;2.07;;;0.67;;
5135;SDS011;2586;48.710;9.202;2022-11-18T12:48:55;1.80;;;0.80;;
5135;SDS011;2586;48.710;9.202;2022-11-18T12:53:48;1.30;;;0.67;;
5135;SDS011;2586;48.710;9.202;2022-11-18T12:56:29;3.73;;;0.63;;
5135;SDS011;2586;48.710;9.202;2022-11-18T12:59:00;1.37;;;0.93;;
5135;SDS011;2586;48.710;9.202;2022-11-18T13:01:31;0.70;;;0.70;;
5135;SDS011;2586;48.710;9.202;2022-11-18T13:04:07;0.90;;;0.90;;
5135;SDS011;2586;48.710;9.202;2022-11-18T13:06:38;3.60;;;0.90;;
5135;SDS011;2586;48.710;9.202;2022-11-18T13:09:04;2.17;;;1.10;;
5135;SDS011;2586;48.710;9.202;2022-11-18T13:11:45;19.13;;;1.43;;
5135;SDS011;2586;48.710;9.202;2022-11-18T13:14:19;5.07;;;1.07;;
5135;SDS011;2586;48.710;9.202;2022-11-18T13:20:17;3.40;;;0.60;;
5135;SDS011;2586;48.710;9.202;2022-11-18T13:22:49;1.87;;;0.60;;
5135;SDS011;2586;48.710;9.202;2022-11-18T13:25:37;2.30;;;0.90;;
5135;SDS011;2586;48.710;9.202;2022-11-18T13:30:36;2.83;;;0.67;;
5135;SDS011;2586;48.710;9.202;2022-11-18T13:33:12;3.10;;;0.87;;
5135;SDS011;2586;48.710;9.202;2022-11-18T13:35:39;2.07;;;1.40;;
5135;SDS011;2586;48.710;9.202;2022-11-18T13:38:05;2.80;;;1.07;;
5135;SDS011;2586;48.710;9.202;2022-11-18T13:40:44;4.00;;;0.70;;
5135;SDS011;2586;48.710;9.202;2022-11-18T13:43:29;3.90;;;0.77;;
5135;SDS011;2586;48.710;9.202;2022-11-18T13:45:57;3.00;;;0.90;;
5135;SDS011;2586;48.710;9.202;2022-11-18T13:48:25;4.47;;;1.07;;
5135;SDS011;2586;48.710;9.202;2022-11-18T13:50:52;3.23;;;0.93;;
5135;SDS011;2586;48.710;9.202;2022-11-18T13:53:29;1.87;;;1.37;;
5135;SDS011;2586;48.710;9.202;2022-11-18T13:56:04;5.70;;;1.00;;
5135;SDS011;2586;48.710;9.202;2022-11-18T13:58:31;2.60;;;0.50;;
5135;SDS011;2586;48.710;9.202;2022-11-18T14:01:01;0.93;;;0.77;;
5135;SDS011;2586;48.710;9.202;2022-11-18T14:03:31;10.87;;;0.90;;
5135;SDS011;2586;48.710;9.202;2022-11-18T14:05:59;1.20;;;0.80;;
5135;SDS011;2586;48.710;9.202;2022-11-18T14:08:30;3.37;;;1.00;;
5135;SDS011;2586;48.710;9.202;2022-11-18T14:10:57;0.70;;;0.70;;
5135;SDS011;2586;48.710;9.202;2022-11-18T14:18:46;2.67;;;0.90;;
5135;SDS011;2586;48.710;9.202;2022-11-18T14:21:13;1.00;;;0.70;;
5135;SDS011;2586;48.710;9.202;2022-11-18T14:23:54;1.43;;;0.63;;
5135;SDS011;2586;48.710;9.202;2022-11-18T14:26:27;3.33;;;0.50;;
5135;SDS011;2586;48.710;9.202;2022-11-18T14:29:12;0.60;;;0.50;;
5135;SDS011;2586;48.710;9.202;2022-11-18T14:31:41;1.73;;;0.60;;
5135;SDS011;2586;48.710;9.202;2022-11-18T14:34:20;3.10;;;0.77;;
5135;SDS011;2586;48.710;9.202;2022-11-18T14:36:50;1.53;;;0.93;;
5135;SDS011;2586;48.710;9.202;2022-11-18T14:41:49;2.97;;;0.73;;
5135;SDS011;2586;48.710;9.202;2022-11-18T14:44:16;1.33;;;0.53;;
5135;SDS011;2586;48.710;9.202;2022-11-18T14:46:44;1.07;;;0.60;;
5135;SDS011;2586;48.710;9.202;2022-11-18T14:49:18;5.50;;;0.53;;
5135;SDS011;2586;48.710;9.202;2022-11-18T14:51:45;1.30;;;0.50;;
5135;SDS011;2586;48.710;9.202;2022-11-18T14:54:15;3.57;;;0.80;;
5135;SDS011;2586;48.710;9.202;2022-11-18T14:56:42;4.03;;;0.73;;
5135;SDS011;2586;48.710;9.202;2022-11-18T14:59:13;1.63;;;0.60;;
5135;SDS011;2586;48.710;9.202;2022-11-18T15:01:40;1.50;;;0.50;;
5135;SDS011;2586;48.710;9.202;2022-11-18T15:04:06;4.40;;;0.97;;
5135;SDS011;2586;48.710;9.202;2022-11-18T15:06:32;3.03;;;0.50;;
5135;SDS011;2586;48.710;9.202;2022-11-18T15:08:58;1.37;;;0.70;;
5135;SDS011;2586;48.710;9.202;2022-11-18T15:11:23;1.53;;;0.97;;
5135;SDS011;2586;48.710;9.202;2022-11-18T15:13:49;2.20;;;0.70;;
5135;SDS011;2586;48.710;9.202;2022-11-18T15:16:16;0.60;;;0.60;;
5135;SDS011;2586;48.710;9.202;2022-11-18T15:18:43;2.33;;;0.90;;
5135;SDS011;2586;48.710;9.202;2022-11-18T15:21:11;1.70;;;0.93;;
5135;SDS011;2586;48.710;9.202;2022-11-18T15:23:37;8.03;;;0.70;;
5135;SDS011;2586;48.710;9.202;2022-11-18T15:26:07;6.20;;;1.03;;
5135;SDS011;2586;48.710;9.202;2022-11-18T15:28:41;4.13;;;1.00;;
5135;SDS011;2586;48.710;9.202;2022-11-18T15:31:06;3.80;;;1.03;;
5135;SDS011;2586;48.710;9.202;2022-11-18T15:33:32;4.27;;;1.90;;
5135;SDS011;2586;48.710;9.202;2022-11-18T15:35:58;0.87;;;0.67;;
5135;SDS011;2586;48.710;9.202;2022-11-18T15:38:23;7.93;;;1.13;;
5135;SDS011;2586;48.710;9.202;2022-11-18T15:40:49;2.60;;;1.40;;
5135;SDS011;2586;48.710;9.202;2022-11-18T15:43:14;3.27;;;1.60;;
5135;SDS011;2586;48.710;9.202;2022-11-18T15:45:41;1.63;;;1.27;;
5135;SDS011;2586;48.710;9.202;2022-11-18T15:48:07;2.80;;;1.07;;
5135;SDS011;2586;48.710;9.202;2022-11-18T15:50:33;3.93;;;1.47;;
5135;SDS011;2586;48.710;9.202;2022-11-18T15:52:58;5.77;;;1.30;;
5135;SDS011;2586;48.710;9.202;2022-11-18T15:55:24;1.47;;;1.07;;
5135;SDS011;2586;48.710;9.202;2022-11-18T15:57:50;2.57;;;1.43;;
5135;SDS011;2586;48.710;9.202;2022-11-18T16:00:16;4.13;;;1.60;;
5135;SDS011;2586;48.710;9.202;2022-11-18T16:02:41;3.00;;;1.10;;
5135;SDS011;2586;48.710;9.202;2022-11-18T16:05:07;2.30;;;1.30;;
5135;SDS011;2586;48.710;9.202;2022-11-18T16:07:33;7.10;;;0.90;;
5135;SDS011;2586;48.710;9.202;2022-11-18T16:09:59;6.13;;;1.20;;
5135;SDS011;2586;48.710;9.202;2022-11-18T16:12:43;4.57;;;1.27;;
5135;SDS011;2586;48.710;9.202;2022-11-18T16:15:11;7.03;;;1.47;;
5135;SDS011;2586;48.710;9.202;2022-11-18T16:17:56;3.50;;;1.60;;
5135;SDS011;2586;48.710;9.202;2022-11-18T16:20:23;4.90;;;1.90;;
5135;SDS011;2586;48.710;9.202;2022-11-18T16:22:52;5.57;;;1.37;;
5135;SDS011;2586;48.710;9.202;2022-11-18T16:25:18;3.33;;;1.47;;
5135;SDS011;2586;48.710;9.202;2022-11-18T16:27:44;9.67;;;1.80;;
5135;SDS011;2586;48.710;9.202;2022-11-18T16:30:10;4.17;;;1.60;;
5135;SDS011;2586;48.710;9.202;2022-11-18T16:32:56;4.33;;;1.17;;
5135;SDS011;2586;48.710;9.202;2022-11-18T16:35:21;3.60;;;1.37;;
5135;SDS011;2586;48.710;9.202;2022-11-18T16:37:47;7.27;;;1.33;;
5135;SDS011;2586;48.710;9.202;2022-11-18T16:40:12;8.50;;;1.60;;
5135;SDS011;2586;48.710;9.202;2022-11-18T16:42:38;4.70;;;1.30;;
5135;SDS011;2586;48.710;9.202;2022-11-18T16:45:04;3.83;;;1.47;;
5135;SDS011;2586;48.710;9.202;2022-11-18T16:47:30;3.93;;;0.97;;
5135;SDS011;2586;48.710;9.202;2022-11-18T16:49:55;4.40;;;1.33;;
5135;SDS011;2586;48.710;9.202;2022-11-18T16:52:21;1.60;;;1.03;;
5135;SDS011;2586;48.710;9.202;2022-11-18T16:54:46;1.57;;;1.10;;
5135;SDS011;2586;48.710;9.202;2022-11-18T16:57:12;4.50;;;1.30;;
5135;SDS011;2586;48.710;9.202;2022-11-18T16:59:38;5.50;;;2.27;;
5135;SDS011;2586;48.710;9.202;2022-11-18T17:02:04;9.07;;;2.00;;
5135;SDS011;2586;48.710;9.202;2022-11-18T17:04:30;9.40;;;2.10;;
5135;SDS011;2586;48.710;9.202;2022-11-18T17:06:56;1.93;;;1.80;;
5135;SDS011;2586;48.710;9.202;2022-11-18T17:09:23;8.20;;;1.90;;
5135;SDS011;2586;48.710;9.202;2022-11-18T17:11:50;2.50;;;1.73;;
5135;SDS011;2586;48.710;9.202;2022-11-18T17:14:17;5.20;;;1.63;;
5135;SDS011;2586;48.710;9.202;2022-11-18T17:16:43;5.30;;;1.70;;
5135;SDS011;2586;48.710;9.202;2022-11-18T17:19:13;7.37;;;1.20;;
5135;SDS011;2586;48.710;9.202;2022-11-18T17:21:43;4.20;;;1.93;;
5135;SDS011;2586;48.710;9.202;2022-11-18T17:24:09;4.27;;;2.00;;
5135;SDS011;2586;48.710;9.202;2022-11-18T17:26:38;4.53;;;1.60;;
5135;SDS011;2586;48.710;9.202;2022-11-18T17:29:04;6.63;;;2.07;;